createdAt,value
2022-11-04T00:00:51.621Z,99927.28
2022-11-04T00:02:53.174Z,99917.69
2022-11-04T00:04:54.777Z,99912.19
2022-11-04T00:06:57.089Z,99903.47
2022-11-04T00:09:01.403Z,99913.22
2022-11-04T00:11:04.495Z,99911.53
2022-11-04T00:13:06.435Z,99905.25
2022-11-04T00:15:08.850Z,99894.53
2022-11-04T00:17:11.641Z,99892.63
2022-11-04T00:19:13.301Z,99895.19
2022-11-04T00:21:14.851Z,99906.09
2022-11-04T00:23:16.407Z,99898.78
2022-11-04T00:25:18.109Z,99898.28
2022-11-04T00:27:21.720Z,99895.72
2022-11-04T00:29:23.551Z,99887.50
2022-11-04T00:31:26.965Z,99892.25
2022-11-04T00:33:28.517Z,99889.31
2022-11-04T00:35:30.087Z,99891.69
2022-11-04T00:37:31.858Z,99890.75
2022-11-04T00:39:33.503Z,99884.84
2022-11-04T00:41:35.148Z,99891.41
2022-11-04T00:43:38.014Z,99900.03
2022-11-04T00:45:41.029Z,99894.25
2022-11-04T00:47:42.660Z,99900.22
2022-11-04T00:49:44.333Z,99890.16
2022-11-04T00:51:45.832Z,99888.28
2022-11-04T00:53:47.735Z,99881.53
2022-11-04T00:55:49.262Z,99882.41
2022-11-04T00:57:50.798Z,99882.00
2022-11-04T00:59:53.718Z,99884.88
2022-11-04T01:01:55.542Z,99877.09
2022-11-04T01:03:57.283Z,99880.13
2022-11-04T01:05:58.889Z,99874.03
2022-11-04T01:08:02.199Z,99880.59
2022-11-04T01:10:04.133Z,99883.34
2022-11-04T01:12:05.747Z,99892.63
2022-11-04T01:14:07.434Z,99890.53
2022-11-04T01:16:11.414Z,99867.38
2022-11-04T01:18:12.977Z,99847.59
2022-11-04T01:20:14.563Z,99851.28
2022-11-04T01:22:16.175Z,99846.53
2022-11-04T01:24:17.755Z,99845.97
2022-11-04T01:26:21.453Z,99856.50
2022-11-04T01:28:23.193Z,99848.91
2022-11-04T01:30:24.765Z,99851.84
2022-11-04T01:32:28.931Z,99861.94
2022-11-04T01:34:30.762Z,99856.72
2022-11-04T01:36:32.361Z,99849.91
2022-11-04T01:38:34.104Z,99843.09
2022-11-04T01:40:36.835Z,99851.97
2022-11-04T01:42:38.484Z,99852.34
2022-11-04T01:44:49.543Z,99852.16
2022-11-04T01:46:53.472Z,99862.59
2022-11-04T01:49:01.450Z,99872.66
2022-11-04T01:51:04.687Z,99863.19
2022-11-04T01:53:10.375Z,99860.16
2022-11-04T01:55:16.103Z,99860.81
2022-11-04T01:57:23.424Z,99847.84
2022-11-04T01:59:28.310Z,99846.44
2022-11-04T02:01:30.182Z,99848.16
2022-11-04T02:03:36.394Z,99842.75
2022-11-04T02:05:39.670Z,99841.56
2022-11-04T02:07:41.295Z,99835.34
2022-11-04T02:09:43.982Z,99823.69
2022-11-04T02:11:45.737Z,99826.03
2022-11-04T02:13:47.298Z,99829.75
2022-11-04T02:15:57.282Z,99822.63
2022-11-04T02:18:25.854Z,99817.53
2022-11-04T02:20:50.569Z,99803.06
2022-11-04T02:23:14.012Z,99815.22
2022-11-04T02:25:46.402Z,99813.88
2022-11-04T02:28:06.706Z,99817.66
2022-11-04T02:30:12.392Z,99815.59
2022-11-04T02:32:24.164Z,99811.78
2022-11-04T02:34:36.901Z,99811.06
2022-11-04T02:36:46.760Z,99816.91
2022-11-04T02:38:54.718Z,99809.66
2022-11-04T02:41:03.912Z,99808.84
2022-11-04T02:43:14.671Z,99803.47
2022-11-04T02:45:26.363Z,99805.94
2022-11-04T02:47:31.378Z,99789.03
2022-11-04T02:49:38.447Z,99795.88
2022-11-04T02:51:43.395Z,99796.28
2022-11-04T02:53:51.805Z,99801.50
2022-11-04T02:55:58.141Z,99797.13
2022-11-04T02:58:02.603Z,99791.25
2022-11-04T03:00:06.438Z,99790.09
2022-11-04T03:02:13.488Z,99779.88
2022-11-04T03:04:18.619Z,99782.06
2022-11-04T03:06:24.986Z,99792.56
2022-11-04T03:08:30.689Z,99789.06
2022-11-04T03:10:36.784Z,99791.78
2022-11-04T03:12:45.291Z,99794.34
2022-11-04T03:14:51.983Z,99787.72
2022-11-04T03:16:58.256Z,99797.19
2022-11-04T03:19:08.910Z,99790.94
2022-11-04T03:21:14.521Z,99798.44
2022-11-04T03:23:16.417Z,99796.19
2022-11-04T03:25:18.592Z,99781.47
2022-11-04T03:27:25.126Z,99783.16
2022-11-04T03:29:31.211Z,99791.09
2022-11-04T03:31:43.475Z,99796.22
2022-11-04T03:33:49.247Z,99796.03
2022-11-04T03:35:52.509Z,99823.19
2022-11-04T03:37:57.133Z,99837.22
2022-11-04T03:39:59.111Z,99841.28
2022-11-04T03:42:04.779Z,99838.19
2022-11-04T03:44:06.511Z,99832.97
2022-11-04T03:46:08.383Z,99841.97
2022-11-04T03:48:10.193Z,99839.13
2022-11-04T03:50:20.160Z,99835.91
2022-11-04T03:52:23.825Z,99825.94
2022-11-04T03:54:25.494Z,99835.53
2022-11-04T03:56:41.987Z,99833.88
2022-11-04T03:58:52.139Z,99832.00
2022-11-04T04:01:00.228Z,99823.06
2022-11-04T04:03:08.349Z,99828.97
2022-11-04T04:05:19.269Z,99821.25
2022-11-04T04:07:28.957Z,99823.63
2022-11-04T04:09:39.080Z,99820.66
2022-11-04T04:11:48.910Z,99831.50
2022-11-04T04:13:57.226Z,99815.84
2022-11-04T04:16:03.279Z,99826.28
2022-11-04T04:18:10.641Z,99821.41
2022-11-04T04:20:14.094Z,99827.31
2022-11-04T04:22:20.064Z,99825.97
2022-11-04T04:24:26.796Z,99827.53
2022-11-04T04:26:30.664Z,99827.63
2022-11-04T04:28:32.389Z,99820.41
2022-11-04T04:30:35.709Z,99819.19
2022-11-04T04:32:39.479Z,99822.56
2022-11-04T04:34:41.360Z,99818.75
2022-11-04T04:36:46.882Z,99817.66
2022-11-04T04:38:48.463Z,99808.44
2022-11-04T04:40:55.909Z,99800.72
2022-11-04T04:42:57.720Z,99804.66
2022-11-04T04:44:59.448Z,99815.69
2022-11-04T04:47:02.849Z,99814.84
2022-11-04T04:49:05.768Z,99809.63
2022-11-04T04:51:07.858Z,99811.63
2022-11-04T04:53:09.999Z,99807.84
2022-11-04T04:55:12.180Z,99815.66
2022-11-04T04:57:15.327Z,99815.94
2022-11-04T04:59:17.014Z,99813.69
2022-11-04T05:01:19.220Z,99823.16
2022-11-04T05:03:20.852Z,99830.28
2022-11-04T05:05:25.075Z,99831.41
2022-11-04T05:07:27.054Z,99826.53
2022-11-04T05:09:28.586Z,99827.78
2022-11-04T05:11:30.323Z,99831.03
2022-11-04T05:13:33.222Z,99822.03
2022-11-04T05:15:34.966Z,99826.00
2022-11-04T05:17:36.560Z,99821.09
2022-11-04T05:19:38.065Z,99824.31
2022-11-04T05:21:39.651Z,99824.41
2022-11-04T05:23:41.260Z,99820.13
2022-11-04T05:25:42.830Z,99828.25
2022-11-04T05:27:44.377Z,99831.84
2022-11-04T05:29:47.285Z,99835.16
2022-11-04T05:31:48.874Z,99841.53
2022-11-04T05:33:50.480Z,99848.56
2022-11-04T05:35:52.293Z,99853.88
2022-11-04T05:37:55.825Z,99857.28
2022-11-04T05:39:59.601Z,99857.97
2022-11-04T05:42:01.592Z,99867.38
2022-11-04T05:44:04.290Z,99869.28
2022-11-04T05:46:07.751Z,99862.81
2022-11-04T05:48:09.997Z,99863.00
2022-11-04T05:50:11.640Z,99865.66
2022-11-04T05:52:13.315Z,99868.41
2022-11-04T05:54:14.978Z,99876.09
2022-11-04T05:56:16.714Z,99868.72
2022-11-04T05:58:18.374Z,99857.28
2022-11-04T06:00:20.710Z,99876.25
2022-11-04T06:02:23.748Z,99881.06
2022-11-04T06:04:25.471Z,99890.50
2022-11-04T06:06:28.828Z,99894.91
2022-11-04T06:08:30.625Z,99899.28
2022-11-04T06:10:32.304Z,99891.19
2022-11-04T06:12:34.517Z,99890.63
2022-11-04T06:14:36.424Z,99893.19
2022-11-04T06:16:38.485Z,99902.88
2022-11-04T06:18:41.630Z,99907.72
2022-11-04T06:20:43.161Z,99903.03
2022-11-04T06:22:44.862Z,99906.00
2022-11-04T06:24:46.770Z,99907.44
2022-11-04T06:26:50.058Z,99903.44
2022-11-04T06:28:51.807Z,99904.94
2022-11-04T06:30:53.432Z,99905.53
2022-11-04T06:32:55.088Z,99914.84
2022-11-04T06:34:58.216Z,99919.97
2022-11-04T06:36:59.975Z,99910.66
2022-11-04T06:39:04.593Z,99920.72
2022-11-04T06:41:07.384Z,99915.22
2022-11-04T06:43:09.320Z,99925.56
2022-11-04T06:45:11.124Z,99930.84
2022-11-04T06:47:12.636Z,99932.06
2022-11-04T06:49:16.144Z,99930.75
2022-11-04T06:51:19.138Z,99937.84
2022-11-04T06:53:20.645Z,99937.75
2022-11-04T06:55:22.254Z,99945.63
2022-11-04T06:57:23.950Z,99941.25
2022-11-04T06:59:25.493Z,99942.31
2022-11-04T07:01:29.623Z,99937.66
2022-11-04T07:03:31.241Z,99945.53
2022-11-04T07:05:35.713Z,99950.66
2022-11-04T07:07:40.983Z,99932.97
2022-11-04T07:09:42.510Z,99943.25
2022-11-04T07:11:47.737Z,99941.16
2022-11-04T07:13:49.512Z,99929.56
2022-11-04T07:15:51.023Z,99934.50
2022-11-04T07:17:52.564Z,99937.25
2022-11-04T07:19:54.254Z,99936.22
2022-11-04T07:21:55.820Z,99931.38
2022-11-04T07:24:01.981Z,99934.56
2022-11-04T07:26:05.187Z,99941.59
2022-11-04T07:28:06.761Z,99934.91
2022-11-04T07:30:09.460Z,99936.63
2022-11-04T07:32:10.998Z,99947.28
2022-11-04T07:34:15.301Z,99946.56
2022-11-04T07:36:18.165Z,99946.66
2022-11-04T07:38:19.938Z,99943.66
2022-11-04T07:40:22.874Z,99950.50
2022-11-04T07:42:27.569Z,99940.94
2022-11-04T07:44:29.381Z,99933.91
2022-11-04T07:46:32.065Z,99943.03
2022-11-04T07:48:34.210Z,99934.31
2022-11-04T07:50:40.084Z,99935.19
2022-11-04T07:52:41.658Z,99934.13
2022-11-04T07:54:46.144Z,99924.22
2022-11-04T07:56:49.360Z,99934.56
2022-11-04T07:58:51.190Z,99925.22
2022-11-04T08:00:58.566Z,99928.84
2022-11-04T08:03:00.382Z,99920.53
2022-11-04T08:05:02.160Z,99919.03
2022-11-04T08:07:03.881Z,99910.72
2022-11-04T08:09:05.888Z,99904.84
2022-11-04T08:11:15.835Z,99907.19
2022-11-04T08:13:20.291Z,99909.63
2022-11-04T08:15:22.012Z,99919.13
2022-11-04T08:17:23.588Z,99928.09
2022-11-04T08:19:26.951Z,99935.22
2022-11-04T08:21:29.474Z,99941.22
2022-11-04T08:23:31.250Z,99952.09
2022-11-04T08:25:32.849Z,99944.09
2022-11-04T08:27:35.185Z,99938.44
2022-11-04T08:29:38.384Z,99928.38
2022-11-04T08:31:40.182Z,99945.25
2022-11-04T08:33:42.484Z,99946.84
2022-11-04T08:35:44.393Z,99945.47
2022-11-04T08:37:46.358Z,99951.53
2022-11-04T08:39:50.417Z,99947.38
2022-11-04T08:41:55.215Z,99958.91
2022-11-04T08:43:57.178Z,99952.28
2022-11-04T08:46:02.042Z,99952.91
2022-11-04T08:48:05.660Z,99947.81
2022-11-04T08:50:08.192Z,99954.53
2022-11-04T08:52:10.037Z,99948.00
2022-11-04T08:54:14.298Z,99972.44
2022-11-04T08:56:18.868Z,99972.53
2022-11-04T08:58:21.856Z,99958.56
2022-11-04T09:00:24.236Z,99958.44
2022-11-04T09:02:27.691Z,99952.69
2022-11-04T09:04:29.894Z,99944.16
2022-11-04T09:06:34.903Z,99940.31
2022-11-04T09:08:37.592Z,99940.75
2022-11-04T09:10:41.345Z,99944.38
2022-11-04T09:12:43.282Z,99927.63
2022-11-04T09:14:45.405Z,99933.50
2022-11-04T09:16:47.432Z,99929.88
2022-11-04T09:18:50.845Z,99925.06
2022-11-04T09:20:53.039Z,99920.38
2022-11-04T09:22:56.084Z,99925.91
2022-11-04T09:24:57.663Z,99923.44
2022-11-04T09:26:59.324Z,99915.66
2022-11-04T09:29:01.017Z,99933.59
2022-11-04T09:31:06.698Z,99940.53
2022-11-04T09:33:11.196Z,99939.66
2022-11-04T09:35:14.541Z,99933.38
2022-11-04T09:37:16.438Z,99932.19
2022-11-04T09:39:18.491Z,99931.31
2022-11-04T09:41:51.495Z,99931.16
2022-11-04T09:44:01.558Z,99924.47
2022-11-04T09:46:06.882Z,99915.56
2022-11-04T09:48:14.482Z,99902.94
2022-11-04T09:50:22.931Z,99909.66
2022-11-04T09:52:28.115Z,99917.78
2022-11-04T09:54:47.055Z,99924.94
2022-11-04T09:56:51.449Z,99933.56
2022-11-04T09:58:53.295Z,99939.13
2022-11-04T10:01:00.610Z,99953.16
2022-11-04T10:03:18.004Z,99952.97
2022-11-04T10:05:44.217Z,99965.06
2022-11-04T10:08:02.854Z,99970.22
2022-11-04T10:10:17.251Z,99965.09
2022-11-04T10:12:35.034Z,99965.84
2022-11-04T10:14:52.453Z,99965.09
2022-11-04T10:17:09.968Z,99977.78
2022-11-04T10:19:23.507Z,99984.47
2022-11-04T10:21:39.917Z,99997.19
2022-11-04T10:23:44.295Z,99995.50
2022-11-04T10:25:49.618Z,99990.50
2022-11-04T10:27:52.605Z,99996.78
2022-11-04T10:29:59.026Z,99987.28
2022-11-04T10:32:06.311Z,99982.69
2022-11-04T10:34:13.825Z,99989.19
2022-11-04T10:36:18.096Z,99988.63
2022-11-04T10:38:24.209Z,99991.31
2022-11-04T10:40:29.855Z,99980.88
2022-11-04T10:42:33.385Z,99975.97
2022-11-04T10:44:37.868Z,99967.84
2022-11-04T10:46:49.719Z,99974.25
2022-11-04T10:48:58.312Z,99983.66
2022-11-04T10:51:00.875Z,99998.56
2022-11-04T10:53:12.232Z,99995.50
2022-11-04T10:55:37.778Z,99990.81
2022-11-04T10:57:40.200Z,100001.19
2022-11-04T11:00:00.862Z,100011.84
2022-11-04T11:02:03.645Z,100015.88
2022-11-04T11:04:07.720Z,100011.41
2022-11-04T11:06:24.250Z,100016.97
2022-11-04T11:08:33.895Z,100023.78
2022-11-04T11:10:36.950Z,100031.56
2022-11-04T11:12:54.784Z,100035.63
2022-11-04T11:14:57.828Z,100024.94
2022-11-04T11:17:18.568Z,100029.00
2022-11-04T11:19:21.912Z,100032.28
2022-11-04T11:21:23.676Z,100039.44
2022-11-04T11:23:37.925Z,100047.91
2022-11-04T11:25:44.286Z,100056.31
2022-11-04T11:27:48.958Z,100051.31
2022-11-04T11:29:50.828Z,100052.19
2022-11-04T11:31:54.191Z,100055.59
2022-11-04T11:33:59.213Z,100058.16
2022-11-04T11:36:04.192Z,100069.16
2022-11-04T11:38:05.953Z,100065.63
2022-11-04T11:40:29.513Z,100068.16
2022-11-04T11:42:33.178Z,100060.41
2022-11-04T11:44:38.178Z,100060.88
2022-11-04T11:46:40.025Z,100066.00
2022-11-04T11:48:43.895Z,100053.84
2022-11-04T11:50:55.454Z,100059.09
2022-11-04T11:53:19.935Z,100059.88
2022-11-04T11:55:27.944Z,100059.66
2022-11-04T11:57:42.562Z,100051.09
2022-11-04T12:02:25.800Z,100040.84
2022-11-04T12:09:34.375Z,100025.06
2022-11-04T12:11:49.556Z,100028.25
2022-11-04T12:13:57.315Z,100036.78
2022-11-04T12:16:16.572Z,100025.81
2022-11-04T12:18:53.033Z,100030.91
2022-11-04T12:21:00.884Z,100015.97
2022-11-04T12:23:13.720Z,100040.94
2022-11-04T12:25:22.610Z,100031.66
2022-11-04T12:27:34.153Z,100041.91
2022-11-04T12:30:02.101Z,100043.81
2022-11-04T12:32:16.252Z,100055.34
2022-11-04T12:34:32.690Z,100048.50
2022-11-04T12:36:47.731Z,100056.00
2022-11-04T12:39:04.036Z,100056.00
2022-11-04T12:41:37.912Z,100061.53
2022-11-04T12:43:47.255Z,100056.00
2022-11-04T12:46:03.918Z,100052.59
2022-11-04T12:48:10.414Z,100047.59
2022-11-04T12:50:37.696Z,100051.22
2022-11-04T12:53:18.714Z,100049.50
2022-11-04T12:55:43.814Z,100049.41
2022-11-04T12:57:51.418Z,100046.63
2022-11-04T13:00:08.225Z,100061.56
2022-11-04T13:02:18.056Z,100058.47
2022-11-04T13:04:23.163Z,100056.66
2022-11-04T13:06:31.169Z,100058.78
2022-11-04T13:08:39.476Z,100052.59
2022-11-04T13:10:46.415Z,100059.41
2022-11-04T13:12:50.760Z,100069.97
2022-11-04T13:14:55.482Z,100060.41
2022-11-04T13:17:00.202Z,100065.19
2022-11-04T13:19:05.136Z,100065.19
2022-11-04T13:21:13.538Z,100075.66
2022-11-04T13:23:20.503Z,100079.25
2022-11-04T13:25:33.393Z,100080.94
2022-11-04T13:27:39.802Z,100085.63
2022-11-04T13:29:42.821Z,100086.06
2022-11-04T13:31:53.920Z,100094.78
2022-11-04T13:34:01.495Z,100086.69
2022-11-04T13:36:15.372Z,100083.59
2022-11-04T13:38:22.447Z,100084.78
2022-11-04T13:40:34.158Z,100091.53
2022-11-04T13:43:05.989Z,100091.16
2022-11-04T13:45:12.448Z,100090.78
2022-11-04T13:47:22.010Z,100090.78
2022-11-04T13:49:27.438Z,100088.97
2022-11-04T13:51:43.524Z,100076.22
2022-11-04T13:53:48.300Z,100077.50
2022-11-04T13:55:53.900Z,100086.41
2022-11-04T13:57:58.806Z,100091.66
2022-11-04T14:00:19.409Z,100075.88
2022-11-04T14:02:42.772Z,100077.59
2022-11-04T14:04:46.436Z,100079.28
2022-11-04T14:06:55.581Z,100069.44
2022-11-04T14:09:33.051Z,100079.94
2022-11-04T14:12:33.178Z,100073.72
2022-11-04T14:14:37.609Z,100079.47
2022-11-04T14:16:43.897Z,100080.97
2022-11-04T14:18:47.471Z,100073.63
2022-11-04T14:21:03.873Z,100073.63
2022-11-04T14:23:22.666Z,100072.03
2022-11-04T14:25:28.573Z,100074.69
2022-11-04T14:27:41.214Z,100081.00
2022-11-04T14:29:49.900Z,100073.75
2022-11-04T14:31:53.843Z,100084.41
2022-11-04T14:33:57.278Z,100079.72
2022-11-04T14:36:17.085Z,100080.56
2022-11-04T14:38:26.875Z,100081.81
2022-11-04T14:40:46.879Z,100096.97
2022-11-04T14:42:52.183Z,100112.13
2022-11-04T14:44:54.554Z,100108.59
2022-11-04T14:47:02.730Z,100110.41
2022-11-04T14:49:05.371Z,100112.50
2022-11-04T14:51:07.343Z,100108.50
2022-11-04T14:53:14.996Z,100108.34
2022-11-04T14:55:20.273Z,100108.34
2022-11-04T14:57:23.322Z,100112.91
2022-11-04T14:59:27.403Z,100114.63
2022-11-04T15:01:34.888Z,100101.41
2022-11-04T15:06:01.293Z,100110.75
2022-11-04T15:08:18.061Z,100112.06
2022-11-04T15:10:25.119Z,100113.00
2022-11-04T15:12:26.826Z,100101.41
2022-11-04T15:14:28.462Z,100118.44
2022-11-04T15:16:30.867Z,100121.97
2022-11-04T15:18:32.687Z,100127.41
2022-11-04T15:20:39.433Z,100119.06
2022-11-04T15:22:46.076Z,100127.81
2022-11-04T15:24:47.864Z,100137.63
2022-11-04T15:26:52.748Z,100132.09
2022-11-04T15:28:55.307Z,100137.63
2022-11-04T15:31:06.312Z,100135.03
2022-11-04T15:33:17.348Z,100142.81
2022-11-04T15:35:19.587Z,100143.78
2022-11-04T15:37:22.873Z,100138.56
2022-11-04T15:39:27.824Z,100138.25
2022-11-04T15:41:35.737Z,100141.13
2022-11-04T15:43:41.380Z,100135.03
2022-11-04T15:45:50.024Z,100136.41
2022-11-04T15:48:29.738Z,100136.09
2022-11-04T15:50:32.410Z,100135.25
2022-11-04T15:52:34.579Z,100134.72
2022-11-04T15:54:39.840Z,100133.31
2022-11-04T15:56:44.464Z,100139.47
2022-11-04T15:58:48.809Z,100145.06
2022-11-04T16:00:55.321Z,100145.81
2022-11-04T16:02:59.757Z,100144.78
2022-11-04T16:05:07.644Z,100148.59
2022-11-04T16:07:23.693Z,100156.03
2022-11-04T16:09:28.000Z,100153.91
2022-11-04T16:11:30.272Z,100159.72
2022-11-04T16:13:35.300Z,100158.88
2022-11-04T16:15:40.928Z,100159.25
2022-11-04T16:17:45.202Z,100159.94
2022-11-04T16:19:49.491Z,100152.97
2022-11-04T16:22:00.666Z,100148.53
2022-11-04T16:24:05.476Z,100160.81
2022-11-04T16:26:07.840Z,100145.38
2022-11-04T16:28:19.697Z,100160.59
2022-11-04T16:30:24.028Z,100167.53
2022-11-04T16:32:29.797Z,100179.06
2022-11-04T16:34:31.701Z,100182.00
2022-11-04T16:36:35.824Z,100189.34
2022-11-04T16:38:38.700Z,100186.69
2022-11-04T16:40:44.043Z,100184.56
2022-11-04T16:42:50.023Z,100182.66
2022-11-04T16:44:59.351Z,100186.28
2022-11-04T16:47:02.317Z,100189.50
2022-11-04T16:49:07.843Z,100189.50
2022-11-04T16:51:16.328Z,100188.19
2022-11-04T16:53:21.531Z,100196.94
2022-11-04T16:55:25.095Z,100194.97
2022-11-04T16:57:27.787Z,100190.50
2022-11-04T16:59:30.243Z,100201.41
2022-11-04T17:01:32.285Z,100194.28
2022-11-04T17:03:34.292Z,100205.69
2022-11-04T17:05:38.640Z,100201.72
2022-11-04T17:08:04.710Z,100195.44
2022-11-04T17:10:15.179Z,100209.91
2022-11-04T17:12:18.438Z,100203.63
2022-11-04T17:14:20.456Z,100206.69
2022-11-04T17:16:23.306Z,100206.50
2022-11-04T17:18:24.918Z,100215.41
2022-11-04T17:20:28.535Z,100209.97
2022-11-04T17:22:32.371Z,100222.00
2022-11-04T17:24:35.010Z,100217.72
2022-11-04T17:26:38.600Z,100218.38
2022-11-04T17:28:41.003Z,100217.53
2022-11-04T17:30:44.309Z,100214.09
2022-11-04T17:32:47.138Z,100223.13
2022-11-04T17:34:49.638Z,100222.84
2022-11-04T17:36:52.278Z,100228.47
2022-11-04T17:38:55.531Z,100227.59
2022-11-04T17:40:57.792Z,100232.56
2022-11-04T17:42:59.387Z,100229.69
2022-11-04T17:45:01.053Z,100232.38
2022-11-04T17:47:07.523Z,100229.59
2022-11-04T17:49:12.882Z,100238.66
2022-11-04T17:51:14.599Z,100240.94
2022-11-04T17:53:16.220Z,100249.69
2022-11-04T17:55:24.615Z,100250.94
2022-11-04T17:57:28.834Z,100248.16
2022-11-04T17:59:35.470Z,100249.69
2022-11-04T18:01:38.677Z,100244.16
2022-11-04T18:03:40.873Z,100252.53
2022-11-04T18:05:42.431Z,100250.53
2022-11-04T18:07:43.988Z,100251.56
2022-11-04T18:09:45.464Z,100256.88
2022-11-04T18:11:48.308Z,100255.38
2022-11-04T18:13:49.791Z,100253.84
2022-11-04T18:15:51.433Z,100252.34
2022-11-04T18:17:53.112Z,100248.44
2022-11-04T18:19:54.729Z,100256.16
2022-11-04T18:21:56.249Z,100254.25
2022-11-04T18:23:58.232Z,100262.81
2022-11-04T18:26:00.211Z,100258.63
2022-11-04T18:28:03.208Z,100259.56
2022-11-04T18:30:06.207Z,100262.22
2022-11-04T18:32:07.886Z,100271.47
2022-11-04T18:34:12.168Z,100270.41
2022-11-04T18:36:13.860Z,100271.84
2022-11-04T18:38:15.571Z,100272.78
2022-11-04T18:40:17.539Z,100264.59
2022-11-04T18:42:19.330Z,100268.50
2022-11-04T18:44:22.594Z,100265.09
2022-11-04T18:46:24.146Z,100269.75
2022-11-04T18:48:25.992Z,100272.13
2022-11-04T18:50:27.536Z,100274.81
2022-11-04T18:52:29.177Z,100272.53
2022-11-04T18:54:31.021Z,100267.28
2022-11-04T18:56:33.043Z,100270.72
2022-11-04T18:58:36.384Z,100265.09
2022-11-04T19:00:39.504Z,100273.28
2022-11-04T19:02:41.231Z,100266.81
2022-11-04T19:04:43.305Z,100274.41
2022-11-04T19:06:45.726Z,100280.31
2022-11-04T19:08:47.784Z,100276.53
2022-11-04T19:11:00.680Z,100277.84
2022-11-04T19:13:03.658Z,100285.06
2022-11-04T19:15:09.486Z,100282.50
2022-11-04T19:17:15.197Z,100282.78
2022-11-04T19:19:16.962Z,100279.56
2022-11-04T19:21:20.993Z,100282.59
2022-11-04T19:23:22.585Z,100289.25
2022-11-04T19:25:24.412Z,100286.78
2022-11-04T19:27:26.548Z,100284.31
2022-11-04T19:29:28.257Z,100293.44
2022-11-04T19:31:31.043Z,100293.16
2022-11-04T19:33:34.062Z,100305.06
2022-11-04T19:35:35.681Z,100295.16
2022-11-04T19:37:37.295Z,100298.13
2022-11-04T19:39:39.415Z,100298.78
2022-11-04T19:41:41.001Z,100289.53
2022-11-04T19:43:42.610Z,100289.47
2022-11-04T19:45:45.884Z,100290.69
2022-11-04T19:47:47.534Z,100291.34
2022-11-04T19:49:50.771Z,100297.81
2022-11-04T19:51:52.580Z,100295.53
2022-11-04T19:53:54.594Z,100296.78
2022-11-04T19:55:56.306Z,100292.41
2022-11-04T19:57:58.368Z,100294.50
2022-11-04T20:00:00.025Z,100292.13
2022-11-04T20:02:01.782Z,100293.81
2022-11-04T20:04:04.244Z,100294.69
2022-11-04T20:06:08.452Z,100302.38
2022-11-04T20:08:10.512Z,100298.28
2022-11-04T20:10:12.442Z,100313.22
2022-11-04T20:12:14.235Z,100311.63
2022-11-04T20:14:17.646Z,100308.28
2022-11-04T20:16:22.177Z,100298.22
2022-11-04T20:18:23.911Z,100315.53
2022-11-04T20:20:25.862Z,100322.28
2022-11-04T20:22:29.020Z,100321.59
2022-11-04T20:24:33.252Z,100324.94
2022-11-04T20:26:37.214Z,100324.19
2022-11-04T20:28:39.812Z,100327.88
2022-11-04T20:30:41.663Z,100325.13
2022-11-04T20:32:43.525Z,100319.22
2022-11-04T20:34:45.782Z,100313.81
2022-11-04T20:36:47.325Z,100317.91
2022-11-04T20:38:55.701Z,100329.22
2022-11-04T20:41:02.549Z,100325.03
2022-11-04T20:43:05.945Z,100329.78
2022-11-04T20:45:07.872Z,100331.50
2022-11-04T20:47:09.554Z,100334.06
2022-11-04T20:49:12.263Z,100337.78
2022-11-04T20:51:16.220Z,100336.34
2022-11-04T20:53:18.450Z,100342.25
2022-11-04T20:55:21.846Z,100346.72
2022-11-04T20:57:24.106Z,100352.91
2022-11-04T20:59:26.625Z,100345.78
2022-11-04T21:01:31.313Z,100340.44
2022-11-04T21:03:34.213Z,100359.09
2022-11-04T21:05:36.670Z,100355.00
2022-11-04T21:07:38.893Z,100349.00
2022-11-04T21:09:41.503Z,100352.44
2022-11-04T21:11:45.923Z,100350.72
2022-11-04T21:13:48.497Z,100354.34
2022-11-04T21:15:57.633Z,100359.09
2022-11-04T21:17:59.869Z,100350.91
2022-11-04T21:20:02.168Z,100354.63
2022-11-04T21:22:04.546Z,100353.38
2022-11-04T21:24:07.211Z,100358.91
2022-11-04T21:26:15.091Z,100361.56
2022-11-04T21:28:18.900Z,100365.38
2022-11-04T21:30:21.141Z,100364.22
2022-11-04T21:32:23.667Z,100369.16
2022-11-04T21:34:25.909Z,100359.06
2022-11-04T21:36:28.594Z,100355.28
2022-11-04T21:38:31.829Z,100369.25
2022-11-04T21:40:35.267Z,100374.88
2022-11-04T21:42:37.798Z,100377.72
2022-11-04T21:44:41.805Z,100378.78
2022-11-04T21:46:43.948Z,100381.34
2022-11-04T21:48:46.384Z,100383.44
2022-11-04T21:50:48.923Z,100374.50
2022-11-04T21:52:52.651Z,100379.81
2022-11-04T21:54:55.341Z,100379.63
2022-11-04T21:56:57.340Z,100388.56
2022-11-04T21:59:00.458Z,100386.78
2022-11-04T22:01:05.821Z,100384.19
2022-11-04T22:03:10.795Z,100388.66
2022-11-04T22:05:14.435Z,100384.16
2022-11-04T22:07:16.978Z,100384.00
2022-11-04T22:09:19.694Z,100386.84
2022-11-04T22:11:23.894Z,100393.59
2022-11-04T22:13:25.514Z,100392.94
2022-11-04T22:15:29.958Z,100394.81
2022-11-04T22:17:33.492Z,100404.34
2022-11-04T22:19:35.078Z,100405.78
2022-11-04T22:21:38.837Z,100398.25
2022-11-04T22:23:41.067Z,100401.09
2022-11-04T22:25:48.903Z,100403.19
2022-11-04T22:27:53.567Z,100403.75
2022-11-04T22:29:55.231Z,100405.25
2022-11-04T22:31:56.811Z,100408.13
2022-11-04T22:34:00.398Z,100402.59
2022-11-04T22:36:02.042Z,100402.03
2022-11-04T22:38:03.675Z,100403.63
2022-11-04T22:40:06.915Z,100409.44
2022-11-04T22:42:08.623Z,100406.03
2022-11-04T22:44:10.237Z,100407.91
2022-11-04T22:46:14.567Z,100400.34
2022-11-04T22:48:16.190Z,100401.09
2022-11-04T22:50:19.095Z,100403.84
2022-11-04T22:52:20.631Z,100401.78
2022-11-04T22:54:22.219Z,100402.72
2022-11-04T22:56:23.757Z,100403.00
2022-11-04T22:58:25.320Z,100406.50
2022-11-04T23:00:26.972Z,100404.59
2022-11-04T23:02:32.442Z,100409.28
2022-11-04T23:04:39.510Z,100418.69
2022-11-04T23:06:42.735Z,100409.56
2022-11-04T23:08:44.295Z,100411.34
2022-11-04T23:10:46.611Z,100407.56
2022-11-04T23:12:49.225Z,100415.44
2022-11-04T23:14:53.722Z,100416.66
2022-11-04T23:16:55.784Z,100420.66
2022-11-04T23:18:58.106Z,100419.97
2022-11-04T23:21:00.863Z,100418.47
2022-11-04T23:23:04.576Z,100429.41
2022-11-04T23:25:08.333Z,100415.81
2022-11-04T23:27:10.503Z,100424.84
2022-11-04T23:29:15.162Z,100427.88
2022-11-04T23:31:17.643Z,100426.47
2022-11-04T23:33:19.763Z,100430.78
2022-11-04T23:35:25.261Z,100437.13
2022-11-04T23:37:27.429Z,100444.19
2022-11-04T23:39:30.992Z,100434.41
2022-11-04T23:41:32.942Z,100436.25
2022-11-04T23:43:35.927Z,100446.69
2022-11-04T23:45:38.382Z,100436.97
2022-11-04T23:47:42.053Z,100435.06
2022-11-04T23:49:44.419Z,100433.47
2022-11-04T23:51:46.740Z,100435.06
2022-11-04T23:53:49.530Z,100432.75
2022-11-04T23:55:53.946Z,100444.88
2022-11-04T23:57:58.683Z,100451.91
